Time;durP1;ratioP1;P1;durP2;ratioP2;P2;SDS_P1;SDS_P2;PMS_P1;PMS_P2;Temp;Humidity;BMP_temperature;BMP_pressure;BME280_temperature;BME280_humidity;BME280_pressure;Samples;Min_cycle;Max_cycle;Signal;HPM_P1;HPM_P2
2021/08/24 15:43:35;;;;;;;0.00;0.00;;;36.90;30.20;;;;;;5474019;23;20087;-78
2021/08/24 15:46:05;;;;;;;0.00;0.00;;;36.60;30.20;;;;;;4909738;29;20028;-77
2021/08/24 15:48:31;;;;;;;0.00;0.00;;;36.40;30.60;;;;;;4912929;29;20143;-78
2021/08/24 15:50:59;;;;;;;0.00;0.00;;;36.20;30.90;;;;;;4905852;29;20485;-76
2021/08/24 15:53:25;;;;;;;0.00;0.00;;;36.00;31.20;;;;;;4898310;29;20033;-76
2021/08/24 15:55:57;;;;;;;0.00;0.00;;;35.70;31.60;;;;;;4928539;29;20524;-75
2021/08/24 15:58:27;;;;;;;0.00;0.00;;;35.40;32.00;;;;;;4935381;29;20460;-76
2021/08/24 16:00:54;;;;;;;0.00;0.00;;;34.90;32.00;;;;;;4919711;29;20080;-76
2021/08/24 16:03:20;;;;;;;0.00;0.00;;;34.40;32.40;;;;;;4922072;29;20078;-74
2021/08/24 16:05:47;;;;;;;0.00;0.00;;;33.90;32.60;;;;;;4921854;29;20154;-78
2021/08/24 16:08:13;;;;;;;0.00;0.00;;;33.40;33.00;;;;;;4920821;29;20033;-76
2021/08/24 16:10:42;;;;;;;0.00;0.00;;;32.90;33.10;;;;;;4907543;29;20077;-76
2021/08/24 16:13:12;;;;;;;0.00;0.00;;;32.40;33.40;;;;;;4909435;29;20040;-75
2021/08/24 16:15:39;;;;;;;0.00;0.00;;;31.90;33.70;;;;;;4903671;29;20075;-80
2021/08/24 16:18:32;;;;;;;0.00;0.00;;;31.50;34.10;;;;;;4911291;29;20052;-77
2021/08/24 16:20:58;;;;;;;0.00;0.00;;;31.00;34.50;;;;;;4921780;29;20115;-77
2021/08/24 16:23:25;;;;;;;0.00;0.00;;;30.50;34.80;;;;;;4926368;29;20119;-75
2021/08/24 16:25:51;;;;;;;0.00;0.00;;;30.20;35.20;;;;;;4914073;29;20119;-80
2021/08/24 16:28:18;;;;;;;0.00;0.00;;;29.80;35.60;;;;;;4933532;29;20387;-76
2021/08/24 16:30:44;;;;;;;0.00;0.00;;;29.40;36.00;;;;;;4934792;29;20039;-75
2021/08/24 16:33:10;;;;;;;0.00;0.00;;;29.10;36.50;;;;;;4911559;29;20115;-76
2021/08/24 16:35:38;;;;;;;0.00;0.00;;;28.80;36.90;;;;;;4928017;29;20099;-76
2021/08/24 16:38:16;;;;;;;0.00;0.00;;;28.60;37.30;;;;;;4926370;29;20122;-79
2021/08/24 16:40:48;;;;;;;0.00;0.00;;;28.40;37.70;;;;;;4932430;29;20480;-76
2021/08/24 16:43:15;;;;;;;0.00;0.00;;;28.30;38.10;;;;;;4939066;29;20393;-76
2021/08/24 16:45:41;;;;;;;0.00;0.00;;;28.10;38.40;;;;;;4945043;29;20036;-77
2021/08/24 16:48:08;;;;;;;0.00;0.00;;;27.90;38.70;;;;;;4940517;29;20372;-76
2021/08/24 16:50:36;;;;;;;0.00;0.00;;;27.70;38.80;;;;;;4938519;29;20083;-75
2021/08/24 16:53:02;;;;;;;0.00;0.00;;;27.50;38.80;;;;;;4945693;29;20129;-75
2021/08/24 16:55:29;;;;;;;0.00;0.00;;;27.40;38.90;;;;;;4935891;29;20036;-75
2021/08/24 16:57:54;;;;;;;0.00;0.00;;;27.30;38.80;;;;;;4945431;28;20058;-75
2021/08/24 17:00:25;;;;;;;0.00;0.00;;;27.20;38.90;;;;;;4947017;29;20039;-75
2021/08/24 17:02:51;;;;;;;0.00;0.00;;;27.10;39.00;;;;;;4943905;29;20059;-76
2021/08/24 17:05:21;;;;;;;0.00;0.00;;;27.00;38.70;;;;;;4948657;29;20407;-81
2021/08/24 17:07:47;;;;;;;0.00;0.00;;;26.90;38.70;;;;;;4947496;29;20504;-77
2021/08/24 17:10:12;;;;;;;0.75;0.00;;;26.80;38.60;;;;;;4949063;29;20035;-77
2021/08/24 17:12:40;;;;;;;0.00;0.00;;;26.70;38.40;;;;;;4949605;29;20442;-78
2021/08/24 17:15:15;;;;;;;0.00;0.00;;;26.60;38.30;;;;;;4947447;29;20038;-75
2021/08/24 17:17:41;;;;;;;0.00;0.00;;;26.60;38.00;;;;;;4948502;29;20440;-76
2021/08/24 17:20:09;;;;;;;0.00;0.00;;;26.50;38.10;;;;;;4946481;29;20110;-75
2021/08/24 17:22:36;;;;;;;0.00;0.00;;;26.40;38.10;;;;;;4948959;29;20027;-77
2021/08/24 17:25:03;;;;;;;0.25;0.00;;;26.40;39.00;;;;;;4951802;29;20054;-76
2021/08/24 17:27:29;;;;;;;0.00;0.00;;;26.30;38.20;;;;;;4949482;29;20531;-75
2021/08/24 17:29:55;;;;;;;0.00;0.00;;;26.30;38.30;;;;;;4947664;29;20035;-77
2021/08/24 17:32:20;;;;;;;0.00;0.00;;;26.20;38.40;;;;;;4945281;29;20145;-76
2021/08/24 17:34:46;;;;;;;0.00;0.00;;;26.10;38.30;;;;;;4949364;29;20030;-76
2021/08/24 17:37:12;;;;;;;0.00;0.00;;;26.10;38.30;;;;;;4946028;29;20174;-79
2021/08/24 17:39:37;;;;;;;0.00;0.00;;;26.10;38.30;;;;;;4949470;29;20031;-76
2021/08/24 17:42:03;;;;;;;0.00;0.00;;;26.10;38.40;;;;;;4945762;29;20464;-75
2021/08/24 17:44:29;;;;;;;0.00;0.00;;;26.00;38.40;;;;;;4940718;29;20047;-75
2021/08/24 17:47:03;;;;;;;0.00;0.00;;;26.00;39.20;;;;;;4947700;29;20035;-75
2021/08/24 17:49:37;;;;;;;0.00;0.00;;;25.90;38.70;;;;;;4944591;29;20040;-76
2021/08/24 17:52:03;;;;;;;0.00;0.00;;;25.90;39.00;;;;;;4938770;29;20536;-75
2021/08/24 17:54:29;;;;;;;0.00;0.00;;;25.80;39.20;;;;;;4924402;29;20040;-76
2021/08/24 17:56:56;;;;;;;0.00;0.00;;;25.80;39.60;;;;;;4919276;29;20080;-77
2021/08/24 17:59:22;;;;;;;0.00;0.00;;;25.80;40.00;;;;;;4923966;29;20032;-76
2021/08/24 18:01:47;;;;;;;0.00;0.00;;;25.70;40.20;;;;;;4938332;29;20080;-76
2021/08/24 18:04:13;;;;;;;0.00;0.00;;;25.70;40.50;;;;;;4921759;29;20032;-76
2021/08/24 18:06:43;;;;;;;0.00;0.00;;;25.60;40.60;;;;;;4936160;29;20032;-75
2021/08/24 18:09:19;;;;;;;0.00;0.00;;;25.60;41.00;;;;;;4937614;29;20479;-76
2021/08/24 18:11:58;;;;;;;0.00;0.00;;;25.60;41.30;;;;;;4921215;29;20034;-77
2021/08/24 18:14:34;;;;;;;0.00;0.00;;;25.50;41.60;;;;;;4938358;29;20118;-75
2021/08/24 18:17:01;;;;;;;0.00;0.00;;;25.50;42.10;;;;;;4924468;29;20032;-75
2021/08/24 18:19:27;;;;;;;0.00;0.00;;;25.50;42.40;;;;;;4917934;29;20063;-77
2021/08/24 18:21:54;;;;;;;0.00;0.00;;;25.40;42.80;;;;;;4931518;29;20032;-76
2021/08/24 18:24:21;;;;;;;0.00;0.00;;;25.40;43.20;;;;;;4937888;29;20035;-76
2021/08/24 18:26:48;;;;;;;0.52;0.10;;;25.30;43.50;;;;;;4937874;29;20032;-75
2021/08/24 18:29:14;;;;;;;0.00;0.00;;;25.30;44.10;;;;;;4931941;29;20046;-74
2021/08/24 18:31:39;;;;;;;0.17;0.00;;;25.20;44.40;;;;;;4922351;29;20416;-77
2021/08/24 18:34:06;;;;;;;0.00;0.00;;;25.20;44.80;;;;;;4918742;29;20032;-76
2021/08/24 18:36:32;;;;;;;0.00;0.00;;;25.20;45.20;;;;;;4901656;29;20035;-75
2021/08/24 18:38:57;;;;;;;0.00;0.00;;;25.10;45.60;;;;;;4919201;29;20111;-76
2021/08/24 18:41:24;;;;;;;0.00;0.00;;;25.10;46.00;;;;;;4918902;29;20024;-80
2021/08/24 18:43:52;;;;;;;0.00;0.00;;;25.00;46.30;;;;;;4901835;29;20062;-76
2021/08/24 18:46:18;;;;;;;0.00;0.00;;;25.00;46.70;;;;;;4918759;29;20079;-75
2021/08/24 18:48:44;;;;;;;0.00;0.00;;;25.00;46.90;;;;;;4919027;29;20071;-76
2021/08/24 18:51:20;;;;;;;0.00;0.00;;;25.00;47.40;;;;;;4908737;29;20059;-76
2021/08/24 18:53:46;;;;;;;0.03;0.03;;;24.90;47.80;;;;;;4936956;29;20035;-74
2021/08/24 18:56:14;;;;;;;0.10;0.10;;;24.90;48.20;;;;;;4953228;29;20028;-76
2021/08/24 18:58:40;;;;;;;0.25;0.13;;;24.80;48.60;;;;;;4937127;29;20376;-75
2021/08/24 19:01:11;;;;;;;0.10;0.10;;;24.80;49.00;;;;;;4932203;29;20596;-76
2021/08/24 19:03:42;;;;;;;0.28;0.00;;;24.80;49.70;;;;;;4927175;29;20098;-76
2021/08/24 19:06:08;;;;;;;0.10;0.10;;;24.70;49.90;;;;;;4925795;29;20124;-76
2021/08/24 19:08:34;;;;;;;0.10;0.10;;;24.70;50.40;;;;;;4917789;29;20397;-75
2021/08/24 19:11:00;;;;;;;0.15;0.10;;;24.60;50.70;;;;;;4931976;29;20036;-75
2021/08/24 19:13:27;;;;;;;0.10;0.10;;;24.60;51.20;;;;;;4956355;29;20115;-75
2021/08/24 19:15:55;;;;;;;0.20;0.20;;;24.50;51.40;;;;;;4948382;29;20031;-75
2021/08/24 19:18:26;;;;;;;0.10;0.10;;;24.50;51.70;;;;;;4920565;29;20042;-75
2021/08/24 19:20:53;;;;;;;0.20;0.20;;;24.50;52.20;;;;;;4936656;29;20094;-74
2021/08/24 19:23:22;;;;;;;0.32;0.32;;;24.40;52.60;;;;;;4936851;29;20070;-75
2021/08/24 19:25:51;;;;;;;0.43;0.43;;;24.40;53.20;;;;;;4936945;29;20020;-74
2021/08/24 19:28:17;;;;;;;0.75;0.43;;;24.30;53.70;;;;;;4945948;29;20033;-75
2021/08/24 19:30:43;;;;;;;0.32;0.32;;;24.30;54.10;;;;;;4955812;29;20043;-75
2021/08/24 19:33:09;;;;;;;0.45;0.45;;;24.20;54.60;;;;;;4923036;29;20036;-75
2021/08/24 19:35:36;;;;;;;0.45;0.45;;;24.20;54.90;;;;;;4917542;29;20035;-75
2021/08/24 19:38:02;;;;;;;0.52;0.52;;;24.10;55.10;;;;;;4918523;29;20112;-76
2021/08/24 19:40:28;;;;;;;0.65;0.65;;;24.10;55.10;;;;;;4927011;29;20051;-77
2021/08/24 19:42:58;;;;;;;0.60;0.60;;;24.00;54.90;;;;;;4935610;29;20051;-76
2021/08/24 19:45:26;;;;;;;0.63;0.63;;;24.00;54.50;;;;;;4956083;29;20545;-75
2021/08/24 19:47:52;;;;;;;1.30;0.70;;;24.00;53.70;;;;;;4945061;29;20027;-74
2021/08/24 19:50:18;;;;;;;0.82;0.82;;;24.00;53.20;;;;;;4936347;29;20035;-77
2021/08/24 19:56:06;;;;;;;1.77;1.65;;;23.90;52.40;;;;;;4928656;29;20091;-75
2021/08/24 19:58:34;;;;;;;1.45;1.23;;;23.90;52.20;;;;;;4923390;29;20395;-76
2021/08/24 20:01:03;;;;;;;0.98;0.98;;;23.90;52.00;;;;;;4922656;29;20031;-75
2021/08/24 20:03:50;;;;;;;1.23;1.13;;;23.90;52.00;;;;;;4944013;29;20106;-76
2021/08/24 20:06:16;;;;;;;1.45;1.35;;;23.90;51.80;;;;;;4928727;29;20059;-75
2021/08/24 20:08:42;;;;;;;1.33;1.23;;;23.80;51.60;;;;;;4944553;29;20122;-74
2021/08/24 20:11:20;;;;;;;1.23;1.15;;;23.80;51.40;;;;;;4945397;29;20024;-75
2021/08/24 20:13:46;;;;;;;1.65;1.55;;;23.80;51.10;;;;;;4942958;29;20035;-75
2021/08/24 20:16:11;;;;;;;1.25;1.17;;;23.80;51.00;;;;;;4943316;29;20039;-77
2021/08/24 20:18:37;;;;;;;1.27;1.17;;;23.80;50.90;;;;;;4945734;29;20157;-79
2021/08/24 20:21:03;;;;;;;1.38;1.27;;;23.80;50.70;;;;;;4921358;29;20516;-76
2021/08/24 20:23:32;;;;;;;1.13;1.13;;;23.80;50.80;;;;;;4935742;29;20035;-76
2021/08/24 20:26:01;;;;;;;1.25;0.90;;;23.70;50.80;;;;;;4934378;29;20034;-76
2021/08/24 20:28:27;;;;;;;1.15;1.08;;;23.70;50.50;;;;;;4934645;29;20035;-77
2021/08/24 20:30:53;;;;;;;1.13;1.08;;;23.70;50.30;;;;;;4930102;29;20090;-75
2021/08/24 20:33:21;;;;;;;1.27;1.08;;;23.60;50.80;;;;;;4957827;28;20027;-75
2021/08/24 20:35:46;;;;;;;1.17;1.08;;;23.60;50.10;;;;;;4951244;29;20032;-75
2021/08/24 20:38:12;;;;;;;1.35;1.25;;;23.60;49.70;;;;;;4948159;29;20031;-75
2021/08/24 20:40:44;;;;;;;1.10;1.02;;;23.60;49.70;;;;;;4946445;29;20031;-75
2021/08/24 20:43:10;;;;;;;1.35;1.17;;;23.60;49.60;;;;;;4935416;29;20023;-76
2021/08/24 20:45:36;;;;;;;1.35;1.25;;;23.60;49.60;;;;;;4945051;29;20016;-76
2021/08/24 20:48:03;;;;;;;1.17;1.08;;;23.50;49.70;;;;;;4948400;29;20019;-75
2021/08/24 20:50:29;;;;;;;1.08;0.98;;;23.50;49.50;;;;;;4948573;29;20036;-76
2021/08/24 20:52:55;;;;;;;1.25;1.00;;;23.50;49.40;;;;;;4946518;29;20106;-76
2021/08/24 20:55:20;;;;;;;0.80;0.80;;;23.50;49.20;;;;;;4948304;29;20114;-77
2021/08/24 20:57:46;;;;;;;0.47;0.47;;;23.40;49.00;;;;;;4946981;29;20031;-75
2021/08/24 21:00:12;;;;;;;0.95;0.95;;;23.40;48.80;;;;;;4946755;29;20035;-75
2021/08/24 21:02:39;;;;;;;1.05;0.98;;;23.40;48.60;;;;;;4942060;29;20023;-75
2021/08/24 21:05:05;;;;;;;0.77;0.77;;;23.40;48.40;;;;;;4941460;29;20028;-75
2021/08/24 21:07:31;;;;;;;0.90;0.70;;;23.40;48.20;;;;;;4928331;29;20543;-75
2021/08/24 21:09:57;;;;;;;1.35;0.95;;;23.40;48.10;;;;;;4920548;29;20115;-74
2021/08/24 21:12:22;;;;;;;1.05;1.00;;;23.40;47.90;;;;;;4922654;29;20024;-75
2021/08/24 21:14:49;;;;;;;1.02;0.90;;;23.30;47.90;;;;;;4935329;29;20156;-76
2021/08/24 21:17:15;;;;;;;1.23;1.13;;;23.30;47.90;;;;;;4920454;29;20035;-76
2021/08/24 21:19:41;;;;;;;1.02;0.95;;;23.30;48.10;;;;;;4933232;29;20023;-76
2021/08/24 21:22:08;;;;;;;1.27;1.17;;;23.30;48.20;;;;;;4941775;29;20396;-76
2021/08/24 21:24:34;;;;;;;1.65;1.35;;;23.30;48.10;;;;;;4939323;29;20024;-76
2021/08/24 21:27:00;;;;;;;2.00;1.38;;;23.20;48.20;;;;;;4938928;29;20049;-76
2021/08/24 21:29:26;;;;;;;1.65;1.55;;;23.20;48.30;;;;;;4920257;29;20461;-75
2021/08/24 21:31:52;;;;;;;2.60;1.75;;;23.20;48.30;;;;;;4919930;29;20032;-76
2021/08/24 21:34:18;;;;;;;1.85;1.75;;;23.20;48.20;;;;;;4920039;29;20036;-75
2021/08/24 21:36:44;;;;;;;1.45;1.35;;;23.20;48.20;;;;;;4931295;29;20043;-76
2021/08/24 21:39:10;;;;;;;1.95;1.77;;;23.10;48.10;;;;;;4938852;29;20379;-76
2021/08/24 21:41:36;;;;;;;1.65;1.55;;;23.10;48.20;;;;;;4938338;29;20027;-76
2021/08/24 21:44:04;;;;;;;2.00;1.85;;;23.20;48.30;;;;;;4921818;29;20044;-75
2021/08/24 21:46:33;;;;;;;2.17;1.98;;;23.10;48.30;;;;;;4919939;29;20115;-77
2021/08/24 21:48:59;;;;;;;1.90;1.75;;;23.10;48.20;;;;;;4938651;29;20361;-76
2021/08/24 21:51:39;;;;;;;1.80;1.65;;;23.00;48.00;;;;;;4938889;29;20028;-76
2021/08/24 21:54:08;;;;;;;2.13;1.95;;;23.10;48.20;;;;;;4922644;29;20374;-76
2021/08/24 21:56:34;;;;;;;3.63;1.95;;;23.00;48.30;;;;;;4938084;29;20039;-77
2021/08/24 21:59:00;;;;;;;2.25;2.00;;;23.00;48.30;;;;;;4922502;29;20040;-75
2021/08/24 22:01:27;;;;;;;3.03;2.10;;;23.00;48.30;;;;;;4918917;29;20429;-75
2021/08/24 22:03:53;;;;;;;2.13;1.98;;;22.90;48.20;;;;;;4932884;29;20027;-75
2021/08/24 22:06:19;;;;;;;2.03;1.85;;;22.90;48.40;;;;;;4935373;29;20036;-75
2021/08/24 22:08:45;;;;;;;1.92;1.75;;;22.80;48.50;;;;;;4934071;29;20036;-76
2021/08/24 22:11:14;;;;;;;2.05;1.85;;;22.80;48.00;;;;;;4918906;29;20398;-76
2021/08/24 22:13:56;;;;;;;2.20;1.90;;;22.80;48.00;;;;;;4919749;29;20396;-76
2021/08/24 22:16:24;;;;;;;2.03;1.85;;;22.70;48.00;;;;;;4937407;29;20036;-75
2021/08/24 22:18:50;;;;;;;2.63;2.17;;;22.70;47.70;;;;;;4937537;29;20063;-76
2021/08/24 22:21:39;;;;;;;1.98;1.85;;;22.60;48.00;;;;;;4938116;29;20111;-76
2021/08/24 22:24:09;;;;;;;2.60;2.17;;;22.60;48.20;;;;;;4936664;29;20043;-76
2021/08/24 22:26:35;;;;;;;2.40;2.17;;;22.60;47.80;;;;;;4931247;29;20092;-76
2021/08/24 22:29:01;;;;;;;2.53;2.30;;;22.60;47.60;;;;;;4918531;29;20032;-75
2021/08/24 22:31:27;;;;;;;2.22;2.03;;;22.50;47.50;;;;;;4918442;29;20031;-75
2021/08/24 22:33:53;;;;;;;2.47;2.28;;;22.50;47.50;;;;;;4932152;29;20031;-75
2021/08/24 22:36:43;;;;;;;2.28;2.08;;;22.50;47.50;;;;;;4935855;29;20102;-75
2021/08/24 22:39:10;;;;;;;3.13;2.55;;;22.50;47.40;;;;;;4935996;29;20040;-75
2021/08/24 22:41:36;;;;;;;2.38;2.17;;;22.50;47.30;;;;;;4937275;29;20028;-76
2021/08/24 22:44:08;;;;;;;2.35;2.13;;;22.40;47.20;;;;;;4922420;29;20123;-75
2021/08/24 22:46:37;;;;;;;3.13;1.88;;;22.40;47.00;;;;;;4918797;29;20028;-75
2021/08/24 22:49:03;;;;;;;2.58;2.38;;;22.40;46.90;;;;;;4901538;29;20040;-74
2021/08/24 22:51:29;;;;;;;2.17;1.95;;;22.40;47.00;;;;;;4918551;29;20032;-75
2021/08/24 22:53:56;;;;;;;2.75;2.00;;;22.40;46.70;;;;;;4919968;29;20434;-76
2021/08/24 23:00:21;;;;;;;4.40;3.53;;;22.30;46.90;;;;;;4921219;29;20087;-75
2021/08/24 23:02:47;;;;;;;5.68;3.35;;;22.30;47.10;;;;;;4932624;29;20063;-75
2021/08/24 23:05:13;;;;;;;3.50;2.83;;;22.30;47.00;;;;;;4929007;29;20470;-75
2021/08/24 23:07:39;;;;;;;2.58;2.38;;;22.30;47.10;;;;;;4922699;29;20032;-76
2021/08/24 23:10:05;;;;;;;5.68;2.65;;;22.20;47.00;;;;;;4925488;29;20039;-75
2021/08/24 23:12:31;;;;;;;3.35;2.35;;;22.20;46.90;;;;;;4934033;29;20024;-75
2021/08/24 23:14:58;;;;;;;2.90;2.10;;;22.20;46.70;;;;;;4935918;29;20120;-74
2021/08/24 23:17:24;;;;;;;2.55;2.30;;;22.20;46.60;;;;;;4936486;29;20468;-75
2021/08/24 23:19:49;;;;;;;3.00;2.72;;;22.20;46.70;;;;;;4933226;29;20039;-76
2021/08/24 23:22:15;;;;;;;4.47;2.95;;;22.20;46.90;;;;;;4918077;29;20044;-76
2021/08/24 23:24:41;;;;;;;3.42;2.45;;;22.10;47.10;;;;;;4927106;29;20104;-77
2021/08/24 23:27:07;;;;;;;3.72;2.63;;;22.10;47.20;;;;;;4947748;29;20110;-76
2021/08/24 23:29:32;;;;;;;2.92;2.67;;;22.10;47.20;;;;;;4936699;29;20031;-74
2021/08/24 23:31:58;;;;;;;3.60;3.05;;;22.10;47.10;;;;;;4936596;29;20031;-75
2021/08/24 23:34:24;;;;;;;2.75;2.50;;;22.10;47.10;;;;;;4923977;29;20441;-74
2021/08/24 23:36:49;;;;;;;3.55;2.90;;;22.10;47.00;;;;;;4917458;29;20469;-75
2021/08/24 23:39:15;;;;;;;3.92;2.75;;;22.10;47.00;;;;;;4917165;29;20052;-76
2021/08/24 23:41:41;;;;;;;11.30;3.10;;;22.10;47.00;;;;;;4917524;29;20051;-75
2021/08/24 23:44:07;;;;;;;3.60;3.20;;;22.00;46.80;;;;;;4930137;29;20412;-75
2021/08/24 23:46:33;;;;;;;3.70;2.75;;;22.00;46.80;;;;;;4936488;29;20103;-75
2021/08/24 23:48:59;;;;;;;2.92;2.63;;;22.00;46.90;;;;;;4936503;29;20070;-75
2021/08/24 23:51:24;;;;;;;3.20;2.83;;;22.00;46.80;;;;;;4936209;29;20032;-75
2021/08/24 23:53:50;;;;;;;3.53;3.03;;;22.00;46.80;;;;;;4941729;29;20118;-75
2021/08/24 23:56:16;;;;;;;3.85;2.92;;;22.00;46.80;;;;;;4934529;29;20031;-75
2021/08/24 23:58:42;;;;;;;3.92;2.78;;;22.00;46.80;;;;;;4928428;29;20039;-76
